sensor_id;sensor_type;location;lat;lon;timestamp;pressure;altitude;pressure_sealevel;temperature;humidity
67980;BME280;54760;47.490;19.030;2023-04-06T00:01:25;100306.16;;;4.58;44.84
67980;BME280;54760;47.490;19.030;2023-04-06T00:03:51;100309.19;;;4.16;45.95
67980;BME280;54760;47.490;19.030;2023-04-06T00:06:16;100311.16;;;3.56;47.67
67980;BME280;54760;47.490;19.030;2023-04-06T00:08:42;100308.97;;;3.38;48.01
67980;BME280;54760;47.490;19.030;2023-04-06T00:11:08;100310.53;;;3.66;47.50
67980;BME280;54760;47.490;19.030;2023-04-06T00:13:33;100308.06;;;4.20;46.12
67980;BME280;54760;47.490;19.030;2023-04-06T00:15:59;100298.94;;;4.32;45.88
67980;BME280;54760;47.490;19.030;2023-04-06T00:18:24;100297.97;;;4.14;45.96
67980;BME280;54760;47.490;19.030;2023-04-06T00:20:50;100298.37;;;4.53;45.29
67980;BME280;54760;47.490;19.030;2023-04-06T00:23:16;100292.91;;;4.49;45.13
67980;BME280;54760;47.490;19.030;2023-04-06T00:25:41;100279.22;;;4.79;44.75
67980;BME280;54760;47.490;19.030;2023-04-06T00:28:07;100294.03;;;4.45;45.23
67980;BME280;54760;47.490;19.030;2023-04-06T00:30:33;100281.84;;;4.28;45.68
67980;BME280;54760;47.490;19.030;2023-04-06T00:32:58;100289.56;;;3.92;46.86
67980;BME280;54760;47.490;19.030;2023-04-06T00:35:24;100288.69;;;4.15;46.28
67980;BME280;54760;47.490;19.030;2023-04-06T00:37:49;100281.50;;;4.29;45.89
67980;BME280;54760;47.490;19.030;2023-04-06T00:40:15;100280.13;;;4.50;45.39
67980;BME280;54760;47.490;19.030;2023-04-06T00:42:41;100267.78;;;4.56;45.35
67980;BME280;54760;47.490;19.030;2023-04-06T00:45:07;100273.09;;;4.45;45.19
67980;BME280;54760;47.490;19.030;2023-04-06T00:47:33;100277.84;;;4.15;45.98
67980;BME280;54760;47.490;19.030;2023-04-06T00:49:58;100272.53;;;3.92;46.97
67980;BME280;54760;47.490;19.030;2023-04-06T00:52:24;100272.22;;;3.67;47.27
67980;BME280;54760;47.490;19.030;2023-04-06T00:54:50;100275.44;;;2.94;49.50
67980;BME280;54760;47.490;19.030;2023-04-06T00:57:16;100274.16;;;3.67;47.60
67980;BME280;54760;47.490;19.030;2023-04-06T00:59:42;100275.94;;;3.26;48.54
67980;BME280;54760;47.490;19.030;2023-04-06T01:02:08;100277.56;;;3.90;47.01
67980;BME280;54760;47.490;19.030;2023-04-06T01:04:34;100273.50;;;3.77;46.67
67980;BME280;54760;47.490;19.030;2023-04-06T01:07:00;100278.00;;;3.10;47.81
67980;BME280;54760;47.490;19.030;2023-04-06T01:09:29;100277.63;;;3.37;47.23
67980;BME280;54760;47.490;19.030;2023-04-06T01:11:58;100275.56;;;3.57;46.65
67980;BME280;54760;47.490;19.030;2023-04-06T01:14:24;100270.75;;;4.03;45.30
67980;BME280;54760;47.490;19.030;2023-04-06T01:16:50;100274.69;;;4.09;44.95
67980;BME280;54760;47.490;19.030;2023-04-06T01:19:16;100279.28;;;4.05;45.10
67980;BME280;54760;47.490;19.030;2023-04-06T01:21:41;100271.69;;;4.18;44.62
67980;BME280;54760;47.490;19.030;2023-04-06T01:24:08;100277.78;;;3.78;45.18
67980;BME280;54760;47.490;19.030;2023-04-06T01:26:35;100276.47;;;3.65;45.88
67980;BME280;54760;47.490;19.030;2023-04-06T01:29:02;100273.12;;;3.75;45.58
67980;BME280;54760;47.490;19.030;2023-04-06T01:31:28;100275.50;;;3.80;45.55
67980;BME280;54760;47.490;19.030;2023-04-06T01:33:53;100272.88;;;3.57;45.94
67980;BME280;54760;47.490;19.030;2023-04-06T01:36:19;100269.19;;;3.42;46.12
67980;BME280;54760;47.490;19.030;2023-04-06T01:38:46;100277.50;;;3.27;46.52
67980;BME280;54760;47.490;19.030;2023-04-06T01:41:11;100275.59;;;3.04;47.05
67980;BME280;54760;47.490;19.030;2023-04-06T01:43:36;100271.69;;;3.28;46.50
67980;BME280;54760;47.490;19.030;2023-04-06T01:46:02;100271.78;;;2.83;47.38
67980;BME280;54760;47.490;19.030;2023-04-06T01:48:28;100275.50;;;2.97;47.11
67980;BME280;54760;47.490;19.030;2023-04-06T01:50:54;100271.19;;;2.70;47.55
67980;BME280;54760;47.490;19.030;2023-04-06T01:53:20;100269.50;;;2.85;47.47
67980;BME280;54760;47.490;19.030;2023-04-06T01:55:45;100266.59;;;3.23;46.59
67980;BME280;54760;47.490;19.030;2023-04-06T01:58:11;100271.03;;;3.35;46.09
67980;BME280;54760;47.490;19.030;2023-04-06T02:00:37;100260.56;;;3.33;46.30
67980;BME280;54760;47.490;19.030;2023-04-06T02:03:02;100266.41;;;3.09;46.51
67980;BME280;54760;47.490;19.030;2023-04-06T02:05:29;100251.97;;;3.28;46.29
67980;BME280;54760;47.490;19.030;2023-04-06T02:07:55;100266.56;;;3.20;46.53
67980;BME280;54760;47.490;19.030;2023-04-06T02:10:21;100258.47;;;3.49;46.25
67980;BME280;54760;47.490;19.030;2023-04-06T02:12:47;100259.84;;;3.36;46.53
67980;BME280;54760;47.490;19.030;2023-04-06T02:15:12;100256.53;;;3.80;45.63
67980;BME280;54760;47.490;19.030;2023-04-06T02:17:39;100260.53;;;3.30;47.07
67980;BME280;54760;47.490;19.030;2023-04-06T02:20:05;100250.25;;;3.42;47.78
67980;BME280;54760;47.490;19.030;2023-04-06T02:22:31;100252.28;;;3.79;47.11
67980;BME280;54760;47.490;19.030;2023-04-06T02:24:56;100241.38;;;3.42;47.11
67980;BME280;54760;47.490;19.030;2023-04-06T02:27:22;100239.75;;;3.37;47.67
67980;BME280;54760;47.490;19.030;2023-04-06T02:29:47;100237.09;;;3.71;47.08
67980;BME280;54760;47.490;19.030;2023-04-06T02:32:13;100229.16;;;3.55;47.17
67980;BME280;54760;47.490;19.030;2023-04-06T02:34:38;100237.94;;;3.19;48.43
67980;BME280;54760;47.490;19.030;2023-04-06T02:37:03;100236.03;;;3.49;48.28
67980;BME280;54760;47.490;19.030;2023-04-06T02:39:29;100236.03;;;3.49;48.30
67980;BME280;54760;47.490;19.030;2023-04-06T02:41:55;100234.44;;;3.44;48.11
67980;BME280;54760;47.490;19.030;2023-04-06T02:44:21;100237.66;;;3.54;47.63
67980;BME280;54760;47.490;19.030;2023-04-06T02:46:46;100238.38;;;3.51;47.85
67980;BME280;54760;47.490;19.030;2023-04-06T02:49:12;100234.41;;;3.41;48.19
67980;BME280;54760;47.490;19.030;2023-04-06T02:51:37;100228.53;;;3.35;48.54
67980;BME280;54760;47.490;19.030;2023-04-06T02:54:02;100234.63;;;3.59;48.29
67980;BME280;54760;47.490;19.030;2023-04-06T02:56:28;100234.63;;;3.59;48.19
67980;BME280;54760;47.490;19.030;2023-04-06T02:58:53;100221.81;;;3.56;48.25
67980;BME280;54760;47.490;19.030;2023-04-06T03:01:19;100225.38;;;3.33;49.13
67980;BME280;54760;47.490;19.030;2023-04-06T03:03:44;100231.50;;;3.00;49.94
67980;BME280;54760;47.490;19.030;2023-04-06T03:06:10;100232.25;;;2.97;50.21
67980;BME280;54760;47.490;19.030;2023-04-06T03:08:35;100225.72;;;3.28;49.27
67980;BME280;54760;47.490;19.030;2023-04-06T03:11:01;100220.22;;;3.21;49.73
67980;BME280;54760;47.490;19.030;2023-04-06T03:13:26;100224.78;;;3.17;49.74
67980;BME280;54760;47.490;19.030;2023-04-06T03:15:51;100230.47;;;3.38;49.16
67980;BME280;54760;47.490;19.030;2023-04-06T03:18:24;100224.59;;;3.33;49.35
67980;BME280;54760;47.490;19.030;2023-04-06T03:20:50;100227.69;;;3.05;49.91
67980;BME280;54760;47.490;19.030;2023-04-06T03:23:16;100227.63;;;2.98;49.77
67980;BME280;54760;47.490;19.030;2023-04-06T03:25:42;100229.50;;;2.26;51.28
67980;BME280;54760;47.490;19.030;2023-04-06T03:28:07;100228.59;;;2.86;49.62
67980;BME280;54760;47.490;19.030;2023-04-06T03:30:34;100224.66;;;2.57;50.72
67980;BME280;54760;47.490;19.030;2023-04-06T03:32:59;100235.47;;;3.07;49.33
67980;BME280;54760;47.490;19.030;2023-04-06T03:35:25;100236.28;;;2.61;49.55
67980;BME280;54760;47.490;19.030;2023-04-06T03:37:50;100229.94;;;1.86;51.36
67980;BME280;54760;47.490;19.030;2023-04-06T03:40:16;100242.50;;;2.20;50.46
67980;BME280;54760;47.490;19.030;2023-04-06T03:42:41;100238.38;;;2.26;49.90
67980;BME280;54760;47.490;19.030;2023-04-06T03:45:07;100238.22;;;1.96;50.06
67980;BME280;54760;47.490;19.030;2023-04-06T03:47:33;100230.94;;;2.20;49.39
67980;BME280;54760;47.490;19.030;2023-04-06T03:49:58;100232.97;;;1.84;50.34
67980;BME280;54760;47.490;19.030;2023-04-06T03:52:24;100233.56;;;2.16;49.31
67980;BME280;54760;47.490;19.030;2023-04-06T03:54:49;100231.31;;;2.64;48.37
67980;BME280;54760;47.490;19.030;2023-04-06T03:57:15;100235.09;;;2.82;47.29
67980;BME280;54760;47.490;19.030;2023-04-06T03:59:40;100231.50;;;2.51;48.14
67980;BME280;54760;47.490;19.030;2023-04-06T04:02:06;100232.47;;;2.62;48.22
67980;BME280;54760;47.490;19.030;2023-04-06T04:04:31;100230.31;;;2.98;47.31
67980;BME280;54760;47.490;19.030;2023-04-06T04:06:56;100228.75;;;2.97;48.11
67980;BME280;54760;47.490;19.030;2023-04-06T04:09:22;100227.06;;;2.89;48.16
67980;BME280;54760;47.490;19.030;2023-04-06T04:11:47;100228.75;;;2.97;47.71
67980;BME280;54760;47.490;19.030;2023-04-06T04:14:13;100225.31;;;3.00;48.11
67980;BME280;54760;47.490;19.030;2023-04-06T04:16:38;100217.00;;;2.40;50.21
67980;BME280;54760;47.490;19.030;2023-04-06T04:19:05;100215.91;;;2.90;49.32
67980;BME280;54760;47.490;19.030;2023-04-06T04:21:31;100217.94;;;2.74;49.64
67980;BME280;54760;47.490;19.030;2023-04-06T04:23:56;100219.25;;;2.84;49.56
67980;BME280;54760;47.490;19.030;2023-04-06T04:26:22;100221.81;;;2.73;49.64
67980;BME280;54760;47.490;19.030;2023-04-06T04:28:47;100219.56;;;2.79;49.85
67980;BME280;54760;47.490;19.030;2023-04-06T04:31:13;100219.16;;;2.77;50.04
67980;BME280;54760;47.490;19.030;2023-04-06T04:33:38;100221.88;;;2.77;49.74
67980;BME280;54760;47.490;19.030;2023-04-06T04:36:04;100211.84;;;2.32;50.72
67980;BME280;54760;47.490;19.030;2023-04-06T04:38:30;100217.91;;;2.71;49.74
67980;BME280;54760;47.490;19.030;2023-04-06T04:40:55;100214.44;;;2.47;49.86
67980;BME280;54760;47.490;19.030;2023-04-06T04:43:20;100208.44;;;2.57;49.93
67980;BME280;54760;47.490;19.030;2023-04-06T04:45:46;100203.25;;;2.72;49.41
67980;BME280;54760;47.490;19.030;2023-04-06T04:48:11;100203.78;;;2.81;49.32
67980;BME280;54760;47.490;19.030;2023-04-06T04:50:37;100194.69;;;2.92;48.56
67980;BME280;54760;47.490;19.030;2023-04-06T04:53:02;100193.47;;;2.90;48.49
67980;BME280;54760;47.490;19.030;2023-04-06T04:55:31;100202.06;;;2.95;48.62
67980;BME280;54760;47.490;19.030;2023-04-06T04:57:56;100201.34;;;2.72;48.94
67980;BME280;54760;47.490;19.030;2023-04-06T05:00:22;100203.25;;;2.72;49.48
67980;BME280;54760;47.490;19.030;2023-04-06T05:02:47;100207.63;;;2.80;49.21
67980;BME280;54760;47.490;19.030;2023-04-06T05:05:13;100204.16;;;2.56;48.91
67980;BME280;54760;47.490;19.030;2023-04-06T05:07:38;100205.50;;;2.92;48.44
67980;BME280;54760;47.490;19.030;2023-04-06T05:10:05;100200.03;;;2.89;47.77
67980;BME280;54760;47.490;19.030;2023-04-06T05:12:30;100191.91;;;2.89;45.51
67980;BME280;54760;47.490;19.030;2023-04-06T05:14:56;100183.13;;;2.95;44.69
67980;BME280;54760;47.490;19.030;2023-04-06T05:17:22;100186.16;;;2.90;44.67
67980;BME280;54760;47.490;19.030;2023-04-06T05:19:47;100190.06;;;2.93;44.58
67980;BME280;54760;47.490;19.030;2023-04-06T05:22:13;100177.78;;;3.29;43.82
67980;BME280;54760;47.490;19.030;2023-04-06T05:24:41;100176.81;;;3.44;43.95
67980;BME280;54760;47.490;19.030;2023-04-06T05:27:06;100178.66;;;3.36;44.46
67980;BME280;54760;47.490;19.030;2023-04-06T05:29:32;100171.19;;;3.56;43.29
67980;BME280;54760;47.490;19.030;2023-04-06T05:31:57;100167.19;;;3.46;43.68
67980;BME280;54760;47.490;19.030;2023-04-06T05:34:23;100169.16;;;3.20;44.09
67980;BME280;54760;47.490;19.030;2023-04-06T05:36:48;100173.34;;;3.43;43.99
67980;BME280;54760;47.490;19.030;2023-04-06T05:39:14;100172.19;;;3.78;42.88
67980;BME280;54760;47.490;19.030;2023-04-06T05:41:39;100170.56;;;3.70;42.92
67980;BME280;54760;47.490;19.030;2023-04-06T05:44:05;100167.88;;;3.40;43.71
67980;BME280;54760;47.490;19.030;2023-04-06T05:46:30;100160.91;;;3.72;43.65
67980;BME280;54760;47.490;19.030;2023-04-06T05:48:56;100154.50;;;3.87;43.13
67980;BME280;54760;47.490;19.030;2023-04-06T05:51:21;100157.66;;;4.88;41.21
67980;BME280;54760;47.490;19.030;2023-04-06T05:53:47;100159.06;;;4.68;41.04
67980;BME280;54760;47.490;19.030;2023-04-06T05:56:12;100155.91;;;4.59;41.13
67980;BME280;54760;47.490;19.030;2023-04-06T05:58:38;100154.31;;;4.54;41.44
67980;BME280;54760;47.490;19.030;2023-04-06T06:01:03;100149.50;;;4.33;41.84
67980;BME280;54760;47.490;19.030;2023-04-06T06:03:30;100159.16;;;4.82;41.30
67980;BME280;54760;47.490;19.030;2023-04-06T06:06:03;100154.53;;;4.86;40.80
67980;BME280;54760;47.490;19.030;2023-04-06T06:08:29;100147.59;;;4.96;40.03
67980;BME280;54760;47.490;19.030;2023-04-06T06:10:55;100149.09;;;4.86;40.25
67980;BME280;54760;47.490;19.030;2023-04-06T06:13:21;100144.31;;;5.31;39.30
67980;BME280;54760;47.490;19.030;2023-04-06T06:15:47;100138.41;;;5.14;39.12
67980;BME280;54760;47.490;19.030;2023-04-06T06:18:12;100140.06;;;5.47;38.57
67980;BME280;54760;47.490;19.030;2023-04-06T06:20:38;100127.59;;;5.29;39.10
67980;BME280;54760;47.490;19.030;2023-04-06T06:23:03;100122.69;;;5.59;38.54
67980;BME280;54760;47.490;19.030;2023-04-06T06:25:29;100124.75;;;6.04;37.59
67980;BME280;54760;47.490;19.030;2023-04-06T06:27:56;100123.06;;;7.10;35.73
67980;BME280;54760;47.490;19.030;2023-04-06T06:30:22;100125.09;;;6.70;36.02
67980;BME280;54760;47.490;19.030;2023-04-06T06:32:47;100113.78;;;6.89;34.91
67980;BME280;54760;47.490;19.030;2023-04-06T06:35:13;100117.72;;;6.74;35.20
67980;BME280;54760;47.490;19.030;2023-04-06T06:37:39;100118.87;;;6.77;35.37
67980;BME280;54760;47.490;19.030;2023-04-06T06:40:04;100110.50;;;7.40;34.33
67980;BME280;54760;47.490;19.030;2023-04-06T06:42:30;100111.03;;;7.00;35.07
67980;BME280;54760;47.490;19.030;2023-04-06T06:44:56;100114.22;;;6.70;35.16
67980;BME280;54760;47.490;19.030;2023-04-06T06:47:21;100110.38;;;6.43;35.26
67980;BME280;54760;47.490;19.030;2023-04-06T06:49:46;100099.25;;;8.01;32.98
67980;BME280;54760;47.490;19.030;2023-04-06T06:52:12;100113.84;;;7.69;32.80
67980;BME280;54760;47.490;19.030;2023-04-06T06:54:37;100102.41;;;7.23;33.31
67980;BME280;54760;47.490;19.030;2023-04-06T06:57:03;100100.84;;;7.22;33.04
67980;BME280;54760;47.490;19.030;2023-04-06T06:59:28;100107.31;;;7.53;33.07
67980;BME280;54760;47.490;19.030;2023-04-06T07:01:54;100105.84;;;7.34;32.87
67980;BME280;54760;47.490;19.030;2023-04-06T07:04:19;100109.03;;;7.15;33.01
67980;BME280;54760;47.490;19.030;2023-04-06T07:06:45;100109.56;;;6.74;33.81
67980;BME280;54760;47.490;19.030;2023-04-06T07:09:10;100106.00;;;6.84;34.04
67980;BME280;54760;47.490;19.030;2023-04-06T07:11:36;100109.94;;;6.66;34.46
67980;BME280;54760;47.490;19.030;2023-04-06T07:14:01;100108.41;;;6.68;34.58
67980;BME280;54760;47.490;19.030;2023-04-06T07:16:27;100114.22;;;6.77;34.69
67980;BME280;54760;47.490;19.030;2023-04-06T07:18:52;100113.38;;;6.98;33.86
67980;BME280;54760;47.490;19.030;2023-04-06T07:21:18;100111.59;;;7.54;32.66
67980;BME280;54760;47.490;19.030;2023-04-06T07:23:43;100105.50;;;7.25;32.83
67980;BME280;54760;47.490;19.030;2023-04-06T07:26:08;100116.72;;;7.41;32.92
67980;BME280;54760;47.490;19.030;2023-04-06T07:28:34;100110.22;;;7.17;33.47
67980;BME280;54760;47.490;19.030;2023-04-06T07:31:00;100103.84;;;8.07;32.03
67980;BME280;54760;47.490;19.030;2023-04-06T07:33:25;100105.94;;;8.41;31.70
67980;BME280;54760;47.490;19.030;2023-04-06T07:35:55;100107.66;;;8.65;35.15
67980;BME280;54760;47.490;19.030;2023-04-06T07:38:21;100089.97;;;9.48;33.17
67980;BME280;54760;47.490;19.030;2023-04-06T07:40:47;100088.94;;;9.92;29.31
67980;BME280;54760;47.490;19.030;2023-04-06T07:43:12;100087.03;;;9.32;29.53
67980;BME280;54760;47.490;19.030;2023-04-06T07:45:37;100098.37;;;8.96;30.55
67980;BME280;54760;47.490;19.030;2023-04-06T07:48:03;100093.59;;;9.07;30.63
67980;BME280;54760;47.490;19.030;2023-04-06T07:50:28;100093.19;;;8.27;30.89
67980;BME280;54760;47.490;19.030;2023-04-06T07:52:54;100097.56;;;8.14;31.45
67980;BME280;54760;47.490;19.030;2023-04-06T07:55:19;100090.72;;;7.92;31.84
67980;BME280;54760;47.490;19.030;2023-04-06T07:57:45;100097.97;;;7.54;32.26
67980;BME280;54760;47.490;19.030;2023-04-06T08:00:11;100097.72;;;7.93;31.83
67980;BME280;54760;47.490;19.030;2023-04-06T08:02:36;100089.28;;;7.76;32.24
67980;BME280;54760;47.490;19.030;2023-04-06T08:05:02;100090.41;;;7.82;31.76
67980;BME280;54760;47.490;19.030;2023-04-06T08:07:27;100094.34;;;8.26;31.41
67980;BME280;54760;47.490;19.030;2023-04-06T08:09:53;100089.00;;;8.12;31.67
67980;BME280;54760;47.490;19.030;2023-04-06T08:12:18;100103.84;;;8.11;31.77
67980;BME280;54760;47.490;19.030;2023-04-06T08:14:44;100098.56;;;7.82;32.79
67980;BME280;54760;47.490;19.030;2023-04-06T08:17:09;100088.34;;;8.01;32.63
67980;BME280;54760;47.490;19.030;2023-04-06T08:19:35;100101.78;;;7.70;32.83
67980;BME280;54760;47.490;19.030;2023-04-06T08:22:01;100095.59;;;8.18;32.18
67980;BME280;54760;47.490;19.030;2023-04-06T08:24:27;100086.56;;;7.73;33.22
67980;BME280;54760;47.490;19.030;2023-04-06T08:26:53;100092.41;;;7.75;33.35
67980;BME280;54760;47.490;19.030;2023-04-06T08:29:18;100087.50;;;7.52;33.22
67980;BME280;54760;47.490;19.030;2023-04-06T08:31:43;100086.72;;;8.07;32.73
67980;BME280;54760;47.490;19.030;2023-04-06T08:34:09;100079.75;;;8.02;32.78
67980;BME280;54760;47.490;19.030;2023-04-06T08:36:35;100084.69;;;7.66;32.98
67980;BME280;54760;47.490;19.030;2023-04-06T08:39:01;100085.66;;;7.24;34.31
67980;BME280;54760;47.490;19.030;2023-04-06T08:41:27;100077.09;;;7.29;33.88
67980;BME280;54760;47.490;19.030;2023-04-06T08:43:57;100074.81;;;7.17;34.21
67980;BME280;54760;47.490;19.030;2023-04-06T08:46:24;100072.50;;;7.12;34.23
67980;BME280;54760;47.490;19.030;2023-04-06T08:48:57;100069.19;;;7.49;33.93
67980;BME280;54760;47.490;19.030;2023-04-06T08:51:24;100075.03;;;8.06;32.40
67980;BME280;54760;47.490;19.030;2023-04-06T08:53:52;100069.72;;;8.78;31.25
67980;BME280;54760;47.490;19.030;2023-04-06T08:56:20;100048.75;;;9.89;30.11
67980;BME280;54760;47.490;19.030;2023-04-06T08:58:47;100047.94;;;12.38;27.26
67980;BME280;54760;47.490;19.030;2023-04-06T09:01:14;100046.41;;;12.04;26.84
67980;BME280;54760;47.490;19.030;2023-04-06T09:03:42;100051.78;;;11.23;27.36
67980;BME280;54760;47.490;19.030;2023-04-06T09:06:09;100038.53;;;11.74;26.89
67980;BME280;54760;47.490;19.030;2023-04-06T09:08:35;100038.03;;;11.95;26.73
67980;BME280;54760;47.490;19.030;2023-04-06T09:11:02;100038.16;;;12.37;25.11
67980;BME280;54760;47.490;19.030;2023-04-06T09:13:28;100041.44;;;11.11;26.43
67980;BME280;54760;47.490;19.030;2023-04-06T09:16:01;100041.50;;;10.49;27.62
67980;BME280;54760;47.490;19.030;2023-04-06T09:18:30;100038.19;;;9.64;28.60
67980;BME280;54760;47.490;19.030;2023-04-06T09:21:05;100041.44;;;8.98;30.03
67980;BME280;54760;47.490;19.030;2023-04-06T09:23:31;100036.81;;;9.52;29.36
67980;BME280;54760;47.490;19.030;2023-04-06T09:26:23;100036.19;;;9.11;29.56
67980;BME280;54760;47.490;19.030;2023-04-06T09:28:54;100036.13;;;9.14;29.96
67980;BME280;54760;47.490;19.030;2023-04-06T09:31:29;100033.69;;;9.50;28.91
67980;BME280;54760;47.490;19.030;2023-04-06T09:33:56;100023.03;;;9.83;28.51
67980;BME280;54760;47.490;19.030;2023-04-06T09:36:35;100034.72;;;9.33;29.54
67980;BME280;54760;47.490;19.030;2023-04-06T09:39:04;100017.94;;;9.62;29.19
67980;BME280;54760;47.490;19.030;2023-04-06T09:41:34;100021.38;;;9.66;28.99
67980;BME280;54760;47.490;19.030;2023-04-06T09:44:08;100023.53;;;9.51;29.59
67980;BME280;54760;47.490;19.030;2023-04-06T09:46:43;100010.03;;;9.40;30.16
67980;BME280;54760;47.490;19.030;2023-04-06T09:49:09;100007.28;;;10.17;28.86
67980;BME280;54760;47.490;19.030;2023-04-06T09:51:45;100009.03;;;10.27;28.24
67980;BME280;54760;47.490;19.030;2023-04-06T09:54:20;100002.31;;;10.75;27.87
67980;BME280;54760;47.490;19.030;2023-04-06T09:56:50;99998.81;;;11.46;26.96
67980;BME280;54760;47.490;19.030;2023-04-06T09:59:40;99994.19;;;11.59;26.88
67980;BME280;54760;47.490;19.030;2023-04-06T10:02:23;99986.72;;;11.60;26.77
67980;BME280;54760;47.490;19.030;2023-04-06T10:04:59;99989.47;;;12.25;25.98
67980;BME280;54760;47.490;19.030;2023-04-06T10:07:28;99992.69;;;13.06;25.44
67980;BME280;54760;47.490;19.030;2023-04-06T10:09:54;99992.06;;;13.15;24.51
67980;BME280;54760;47.490;19.030;2023-04-06T10:12:20;99997.75;;;13.08;24.22
67980;BME280;54760;47.490;19.030;2023-04-06T10:14:45;99980.25;;;13.90;23.50
67980;BME280;54760;47.490;19.030;2023-04-06T10:17:11;99978.69;;;14.02;23.39
67980;BME280;54760;47.490;19.030;2023-04-06T10:22:02;99977.81;;;12.91;24.89
67980;BME280;54760;47.490;19.030;2023-04-06T10:24:30;99979.94;;;12.99;24.18
67980;BME280;54760;47.490;19.030;2023-04-06T10:27:01;99971.13;;;12.22;25.04
67980;BME280;54760;47.490;19.030;2023-04-06T10:29:27;99980.50;;;13.20;23.97
67980;BME280;54760;47.490;19.030;2023-04-06T10:31:53;99960.88;;;13.94;22.86
67980;BME280;54760;47.490;19.030;2023-04-06T10:34:20;99968.44;;;13.68;23.34
67980;BME280;54760;47.490;19.030;2023-04-06T10:36:46;99966.78;;;13.45;23.12
67980;BME280;54760;47.490;19.030;2023-04-06T10:39:11;99961.41;;;14.01;22.67
67980;BME280;54760;47.490;19.030;2023-04-06T10:41:44;99966.28;;;12.83;24.21
67980;BME280;54760;47.490;19.030;2023-04-06T10:44:22;99952.31;;;13.92;22.78
67980;BME280;54760;47.490;19.030;2023-04-06T10:46:58;99958.28;;;12.02;24.76
67980;BME280;54760;47.490;19.030;2023-04-06T10:49:26;99970.81;;;12.03;24.67
67980;BME280;54760;47.490;19.030;2023-04-06T10:51:54;99960.75;;;12.42;24.79
67980;BME280;54760;47.490;19.030;2023-04-06T10:54:25;99950.91;;;12.15;25.12
67980;BME280;54760;47.490;19.030;2023-04-06T10:56:52;99956.41;;;11.51;26.53
67980;BME280;54760;47.490;19.030;2023-04-06T10:59:21;99958.62;;;11.23;26.47
67980;BME280;54760;47.490;19.030;2023-04-06T11:01:47;99953.91;;;10.88;25.92
67980;BME280;54760;47.490;19.030;2023-04-06T11:04:19;99949.28;;;10.65;26.12
67980;BME280;54760;47.490;19.030;2023-04-06T11:06:49;99946.56;;;10.46;26.58
67980;BME280;54760;47.490;19.030;2023-04-06T11:09:29;99947.31;;;10.66;26.85
67980;BME280;54760;47.490;19.030;2023-04-06T11:11:56;99958.34;;;10.82;26.88
67980;BME280;54760;47.490;19.030;2023-04-06T11:14:22;99953.22;;;10.45;26.75
67980;BME280;54760;47.490;19.030;2023-04-06T11:16:48;99953.34;;;10.37;27.49
67980;BME280;54760;47.490;19.030;2023-04-06T11:19:15;99941.28;;;10.94;27.00
67980;BME280;54760;47.490;19.030;2023-04-06T11:21:45;99946.34;;;10.56;27.37
67980;BME280;54760;47.490;19.030;2023-04-06T11:26:57;99941.31;;;11.59;25.53
67980;BME280;54760;47.490;19.030;2023-04-06T11:29:25;99941.16;;;11.50;25.33
67980;BME280;54760;47.490;19.030;2023-04-06T11:31:53;99935.97;;;11.03;25.75
67980;BME280;54760;47.490;19.030;2023-04-06T11:34:20;99940.28;;;11.20;26.19
67980;BME280;54760;47.490;19.030;2023-04-06T11:36:48;99930.38;;;11.43;25.34
67980;BME280;54760;47.490;19.030;2023-04-06T11:39:19;99944.72;;;11.14;26.15
67980;BME280;54760;47.490;19.030;2023-04-06T11:41:53;99936.47;;;10.98;26.24
67980;BME280;54760;47.490;19.030;2023-04-06T11:44:39;99926.56;;;11.20;26.21
67980;BME280;54760;47.490;19.030;2023-04-06T11:47:08;99932.94;;;11.50;25.60
67980;BME280;54760;47.490;19.030;2023-04-06T11:49:37;99935.66;;;11.17;25.83
67980;BME280;54760;47.490;19.030;2023-04-06T11:52:15;99923.97;;;10.97;26.53
67980;BME280;54760;47.490;19.030;2023-04-06T11:54:41;99927.94;;;11.12;26.50
67980;BME280;54760;47.490;19.030;2023-04-06T11:57:08;99930.19;;;11.34;26.67
67980;BME280;54760;47.490;19.030;2023-04-06T11:59:34;99924.28;;;11.84;25.79
67980;BME280;54760;47.490;19.030;2023-04-06T12:02:03;99914.63;;;10.59;27.52
67980;BME280;54760;47.490;19.030;2023-04-06T12:04:29;99917.69;;;10.61;28.21
67980;BME280;54760;47.490;19.030;2023-04-06T12:06:55;99925.41;;;10.66;27.58
67980;BME280;54760;47.490;19.030;2023-04-06T12:09:21;99916.94;;;10.21;28.48
67980;BME280;54760;47.490;19.030;2023-04-06T12:11:46;99915.75;;;10.41;28.04
67980;BME280;54760;47.490;19.030;2023-04-06T12:14:12;99927.63;;;10.55;27.81
67980;BME280;54760;47.490;19.030;2023-04-06T12:16:38;99919.31;;;10.19;28.02
67980;BME280;54760;47.490;19.030;2023-04-06T12:19:04;99917.97;;;9.84;28.49
67980;BME280;54760;47.490;19.030;2023-04-06T12:21:35;99910.63;;;9.57;28.92
67980;BME280;54760;47.490;19.030;2023-04-06T12:24:03;99919.53;;;9.62;28.64
67980;BME280;54760;47.490;19.030;2023-04-06T12:26:29;99925.19;;;9.51;29.08
67980;BME280;54760;47.490;19.030;2023-04-06T12:28:55;99916.84;;;9.58;29.54
67980;BME280;54760;47.490;19.030;2023-04-06T12:31:22;99919.78;;;9.47;29.17
67980;BME280;54760;47.490;19.030;2023-04-06T12:33:51;99915.31;;;9.80;28.88
67980;BME280;54760;47.490;19.030;2023-04-06T12:36:18;99918.16;;;9.73;28.80
67980;BME280;54760;47.490;19.030;2023-04-06T12:38:48;99916.87;;;9.81;29.02
67980;BME280;54760;47.490;19.030;2023-04-06T12:41:14;99918.63;;;10.34;28.15
67980;BME280;54760;47.490;19.030;2023-04-06T12:43:40;99913.34;;;10.83;27.42
67980;BME280;54760;47.490;19.030;2023-04-06T12:46:06;99912.28;;;10.77;27.75
67980;BME280;54760;47.490;19.030;2023-04-06T12:48:32;99903.81;;;10.32;28.32
67980;BME280;54760;47.490;19.030;2023-04-06T12:51:03;99907.03;;;10.27;28.38
67980;BME280;54760;47.490;19.030;2023-04-06T12:53:29;99905.00;;;10.11;28.66